Time;durP1;ratioP1;P1;durP2;ratioP2;P2;SDS_P1;SDS_P2;PMS_P1;PMS_P2;Temp;Humidity;BMP_temperature;BMP_pressure;BME280_temperature;BME280_humidity;BME280_pressure;Samples;Min_cycle;Max_cycle;Signal;HPM_P1;HPM_P2
2023/09/13 00:01:40;;;;;;;7.23;6.53;;;21.00;99.90;;;;;;4936928;29;20203;-80
2023/09/13 00:04:06;;;;;;;9.50;7.67;;;21.00;99.90;;;;;;4933228;29;21144;-80
2023/09/13 00:06:32;;;;;;;10.07;9.07;;;21.00;99.90;;;;;;4933451;29;20188;-80
2023/09/13 00:08:57;;;;;;;11.57;9.60;;;21.10;99.90;;;;;;4932212;29;20268;-80
2023/09/13 00:11:23;;;;;;;9.20;8.30;;;21.00;99.90;;;;;;4935098;29;20176;-80
2023/09/13 00:13:49;;;;;;;9.00;8.10;;;21.10;99.90;;;;;;4931485;29;20739;-80
2023/09/13 00:16:15;;;;;;;9.40;8.50;;;21.10;99.90;;;;;;4935057;29;20573;-80
2023/09/13 00:18:41;;;;;;;7.80;7.10;;;21.10;99.90;;;;;;4934789;29;20170;-80
2023/09/13 00:21:10;;;;;;;9.13;8.23;;;21.10;99.90;;;;;;4942121;29;20653;-80
2023/09/13 00:23:35;;;;;;;9.23;8.23;;;21.10;99.90;;;;;;4949539;28;20179;-80
2023/09/13 00:26:01;;;;;;;8.30;7.50;;;21.10;99.90;;;;;;4954114;29;20588;-80
2023/09/13 00:28:27;;;;;;;8.60;7.80;;;21.10;99.90;;;;;;4954056;29;20180;-81
2023/09/13 00:30:52;;;;;;;9.13;8.23;;;21.10;99.90;;;;;;4936427;29;20192;-80
2023/09/13 00:33:18;;;;;;;8.20;7.47;;;21.10;99.90;;;;;;4923632;29;20264;-80
2023/09/13 00:35:44;;;;;;;11.20;10.10;;;21.10;99.90;;;;;;4933245;29;20352;-80
2023/09/13 00:38:10;;;;;;;10.60;9.60;;;21.10;99.90;;;;;;4922760;29;20678;-80
2023/09/13 00:40:35;;;;;;;12.07;10.00;;;21.10;99.90;;;;;;4936554;29;20192;-80
2023/09/13 00:43:02;;;;;;;12.00;10.80;;;21.10;99.90;;;;;;4952271;28;20212;-80
2023/09/13 00:45:31;;;;;;;11.17;9.93;;;21.10;99.90;;;;;;4936556;28;20595;-80
2023/09/13 00:47:58;;;;;;;11.50;10.30;;;21.10;99.90;;;;;;4936512;28;20281;-80
2023/09/13 00:50:26;;;;;;;11.00;9.90;;;21.10;99.90;;;;;;4953434;28;20691;-80
2023/09/13 00:52:52;;;;;;;13.23;11.70;;;21.10;99.90;;;;;;4952257;28;20616;-80
2023/09/13 00:55:20;;;;;;;11.50;10.40;;;21.10;99.90;;;;;;4952345;28;20644;-80
2023/09/13 00:57:49;;;;;;;11.77;10.60;;;21.10;99.90;;;;;;4936129;29;20587;-80
2023/09/13 01:00:16;;;;;;;10.50;9.47;;;21.10;99.90;;;;;;4920104;29;20580;-80
2023/09/13 01:02:43;;;;;;;11.73;10.50;;;21.00;99.90;;;;;;4951965;28;20612;-80
2023/09/13 01:05:11;;;;;;;13.17;11.83;;;21.00;99.90;;;;;;4956277;28;20604;-80
2023/09/13 01:07:44;;;;;;;10.60;9.60;;;21.00;99.90;;;;;;4950250;29;21238;-80
2023/09/13 01:10:11;;;;;;;13.13;11.60;;;21.00;99.90;;;;;;4933026;29;20604;-80
2023/09/13 01:12:37;;;;;;;11.30;10.20;;;21.00;99.90;;;;;;4948462;29;20755;-80
2023/09/13 01:15:07;;;;;;;11.60;10.50;;;21.00;99.90;;;;;;4936259;29;20591;-81
2023/09/13 01:17:45;;;;;;;11.30;10.13;;;21.00;99.90;;;;;;4952904;28;20645;-80
2023/09/13 01:20:20;;;;;;;10.27;9.27;;;21.00;99.90;;;;;;4932106;29;20995;-81
2023/09/13 01:23:05;;;;;;;10.60;8.23;;;21.00;99.90;;;;;;4932894;29;20604;-80
2023/09/13 01:26:09;;;;;;;9.87;8.87;;;21.00;99.90;;;;;;4917153;29;20581;-81
2023/09/13 01:28:39;;;;;;;11.30;8.90;;;21.00;99.90;;;;;;4912507;29;20615;-81
2023/09/13 01:31:09;;;;;;;11.10;9.70;;;21.00;99.90;;;;;;4951517;29;20623;-81
2023/09/13 01:33:37;;;;;;;10.00;8.53;;;21.00;99.90;;;;;;4935863;29;20599;-81
2023/09/13 01:36:04;;;;;;;11.23;9.10;;;21.00;99.90;;;;;;4950156;29;20633;-81
2023/09/13 01:38:30;;;;;;;9.20;8.30;;;21.00;99.90;;;;;;4932617;29;20260;-81
2023/09/13 01:41:33;;;;;;;9.57;8.57;;;20.90;99.90;;;;;;4933249;29;20953;-81
2023/09/13 01:43:59;;;;;;;12.07;8.80;;;20.90;99.90;;;;;;4934901;29;20627;-81
2023/09/13 01:46:38;;;;;;;12.00;9.70;;;20.90;99.90;;;;;;4951572;29;20593;-81
2023/09/13 01:49:05;;;;;;;11.03;9.80;;;20.90;99.90;;;;;;4948473;29;20593;-81
2023/09/13 01:51:32;;;;;;;10.73;9.63;;;20.90;99.90;;;;;;4930571;28;20659;-80
2023/09/13 01:53:57;;;;;;;10.90;9.60;;;20.90;99.90;;;;;;4951493;29;20657;-80
2023/09/13 01:56:23;;;;;;;12.60;10.20;;;20.90;99.90;;;;;;4935400;29;21215;-80
2023/09/13 01:58:49;;;;;;;10.27;9.13;;;20.90;99.90;;;;;;4951215;28;20187;-80
2023/09/13 02:01:19;;;;;;;10.60;9.50;;;20.90;99.90;;;;;;4935639;28;20188;-81
2023/09/13 02:03:45;;;;;;;12.67;9.60;;;20.90;99.90;;;;;;4951195;29;21242;-81
2023/09/13 02:06:12;;;;;;;15.40;11.07;;;20.90;99.90;;;;;;4939768;29;20589;-81
2023/09/13 02:08:40;;;;;;;13.47;10.00;;;20.90;99.90;;;;;;4933369;29;20597;-81
2023/09/13 02:11:08;;;;;;;11.90;10.70;;;20.90;99.90;;;;;;4915950;29;20596;-82
2023/09/13 02:13:34;;;;;;;14.57;11.50;;;20.90;99.90;;;;;;4932151;29;21176;-81
2023/09/13 02:16:00;;;;;;;13.07;11.07;;;20.90;99.90;;;;;;4950031;28;20726;-81
2023/09/13 02:18:26;;;;;;;12.20;10.87;;;20.90;99.90;;;;;;4951334;29;20594;-81
2023/09/13 02:20:52;;;;;;;14.30;11.50;;;20.90;99.90;;;;;;4918908;29;20675;-81
2023/09/13 02:23:18;;;;;;;13.10;10.80;;;20.90;99.90;;;;;;4919331;29;20196;-82
2023/09/13 02:25:44;;;;;;;15.47;11.40;;;21.00;99.90;;;;;;4928320;29;21240;-82
2023/09/13 02:28:12;;;;;;;11.70;10.50;;;21.00;99.90;;;;;;4931915;29;20307;-82
2023/09/13 02:30:38;;;;;;;13.33;12.03;;;21.00;99.90;;;;;;4931068;29;20687;-82
2023/09/13 02:33:05;;;;;;;16.60;12.30;;;21.00;99.90;;;;;;4933794;29;20624;-82
2023/09/13 02:35:30;;;;;;;13.77;11.60;;;21.00;99.90;;;;;;4916325;29;21028;-82
2023/09/13 02:37:57;;;;;;;13.70;11.80;;;21.00;99.90;;;;;;4931865;29;21165;-82
2023/09/13 02:40:23;;;;;;;13.43;10.83;;;21.00;99.90;;;;;;4936674;29;20580;-82
2023/09/13 02:42:49;;;;;;;14.90;12.60;;;21.10;99.90;;;;;;4950953;29;20655;-82
2023/09/13 02:45:15;;;;;;;16.00;12.77;;;21.10;99.90;;;;;;4934972;29;20588;-81
2023/09/13 02:47:41;;;;;;;16.00;12.33;;;21.10;99.90;;;;;;4952368;29;20587;-82
2023/09/13 02:50:08;;;;;;;14.77;12.60;;;21.10;99.90;;;;;;4950739;29;21248;-82
2023/09/13 02:52:34;;;;;;;15.53;13.30;;;21.10;99.90;;;;;;4934859;29;20627;-81
2023/09/13 02:55:01;;;;;;;14.33;12.83;;;21.10;99.90;;;;;;4935009;29;20588;-82
2023/09/13 02:57:27;;;;;;;15.33;13.73;;;21.20;99.90;;;;;;4934767;29;20635;-82
2023/09/13 02:59:53;;;;;;;15.13;13.43;;;21.20;99.90;;;;;;4927156;28;20576;-82
2023/09/13 03:02:20;;;;;;;19.93;13.93;;;21.20;99.90;;;;;;4948947;28;20617;-82
2023/09/13 03:04:53;;;;;;;16.40;14.37;;;21.20;99.90;;;;;;4924305;29;20588;-82
2023/09/13 03:07:20;;;;;;;18.23;15.83;;;21.30;99.90;;;;;;4928166;29;20595;-82
2023/09/13 03:09:51;;;;;;;15.37;13.77;;;21.30;99.90;;;;;;4935207;28;20607;-82
2023/09/13 03:12:17;;;;;;;18.03;16.07;;;21.30;99.90;;;;;;4937652;29;20968;-82
2023/09/13 03:14:43;;;;;;;20.67;17.10;;;21.30;99.90;;;;;;4921242;29;20661;-82
2023/09/13 03:17:11;;;;;;;18.87;16.93;;;21.30;99.90;;;;;;4935070;29;20197;-81
2023/09/13 03:19:37;;;;;;;21.30;18.70;;;21.30;99.90;;;;;;4933898;29;20517;-81
2023/09/13 03:22:02;;;;;;;21.93;19.07;;;21.30;99.90;;;;;;4951960;28;20639;-81
2023/09/13 03:24:28;;;;;;;21.00;18.63;;;21.30;99.90;;;;;;4938125;29;20592;-81
2023/09/13 03:26:54;;;;;;;20.50;18.30;;;21.30;99.90;;;;;;4936729;29;21223;-81
2023/09/13 03:29:20;;;;;;;22.53;18.80;;;21.30;99.90;;;;;;4931228;29;20199;-81
2023/09/13 03:31:46;;;;;;;24.47;19.20;;;21.40;99.90;;;;;;4953688;28;20585;-81
2023/09/13 03:34:13;;;;;;;25.23;21.10;;;21.40;99.90;;;;;;4938198;29;20627;-81
2023/09/13 03:36:40;;;;;;;27.00;22.77;;;21.30;99.90;;;;;;4945707;29;20635;-80
2023/09/13 03:39:06;;;;;;;28.27;21.87;;;21.40;99.90;;;;;;4935147;28;20601;-80
2023/09/13 03:41:32;;;;;;;28.63;22.10;;;21.40;99.90;;;;;;4947802;29;20993;-80
2023/09/13 03:43:58;;;;;;;27.50;23.00;;;21.30;99.90;;;;;;4935834;29;20596;-80
2023/09/13 03:46:25;;;;;;;31.27;22.10;;;21.30;99.90;;;;;;4940750;28;20188;-80
2023/09/13 03:48:55;;;;;;;34.20;23.93;;;21.30;99.90;;;;;;4933595;29;20607;-80
2023/09/13 03:51:20;;;;;;;31.67;24.20;;;21.40;99.90;;;;;;4946321;28;21135;-80
2023/09/13 03:53:47;;;;;;;30.67;24.77;;;21.30;99.90;;;;;;4937379;29;20180;-80
2023/09/13 03:56:13;;;;;;;30.13;23.93;;;21.30;99.90;;;;;;4953182;29;20643;-80
2023/09/13 03:58:39;;;;;;;27.70;23.33;;;21.40;99.90;;;;;;4922640;29;20592;-80
2023/09/13 04:01:06;;;;;;;30.03;24.00;;;21.30;99.90;;;;;;4920023;29;21163;-80
2023/09/13 04:03:32;;;;;;;34.60;24.93;;;21.40;99.90;;;;;;4931515;29;20276;-80
2023/09/13 04:05:59;;;;;;;32.93;25.50;;;21.30;99.90;;;;;;4941895;29;20623;-80
2023/09/13 04:08:26;;;;;;;32.03;25.93;;;21.30;99.90;;;;;;4930690;29;20584;-80
2023/09/13 04:10:52;;;;;;;29.90;23.40;;;21.30;99.90;;;;;;4920458;29;20596;-80
2023/09/13 04:13:18;;;;;;;31.83;25.33;;;21.30;99.90;;;;;;4918015;29;20625;-81
2023/09/13 04:15:45;;;;;;;30.70;25.40;;;21.30;99.90;;;;;;4933635;28;20670;-81
2023/09/13 04:18:12;;;;;;;33.97;25.60;;;21.30;99.90;;;;;;4936595;29;20178;-82
2023/09/13 04:20:38;;;;;;;32.90;27.47;;;21.30;99.90;;;;;;4922711;29;20976;-82
2023/09/13 04:23:04;;;;;;;26.70;22.27;;;21.20;99.90;;;;;;4917586;29;20617;-81
2023/09/13 04:25:29;;;;;;;34.50;27.80;;;21.20;99.90;;;;;;4946379;28;20606;-81
2023/09/13 04:27:55;;;;;;;36.40;27.47;;;21.10;99.90;;;;;;4952623;29;20553;-81
2023/09/13 04:30:21;;;;;;;31.77;27.07;;;21.10;99.90;;;;;;4936639;29;20647;-82
2023/09/13 04:32:47;;;;;;;35.80;27.83;;;21.10;99.90;;;;;;4953791;28;20200;-81
2023/09/13 04:35:13;;;;;;;34.37;27.87;;;21.10;99.90;;;;;;4917954;29;20181;-82
2023/09/13 04:37:41;;;;;;;38.50;27.40;;;21.00;99.90;;;;;;4917775;29;21083;-82
2023/09/13 04:40:07;;;;;;;36.60;27.73;;;21.00;99.90;;;;;;4936287;29;21088;-82
2023/09/13 04:42:37;;;;;;;35.73;27.93;;;21.00;99.90;;;;;;4952755;28;20639;-82
2023/09/13 04:45:04;;;;;;;32.50;27.10;;;21.00;99.90;;;;;;4936432;29;20744;-82
2023/09/13 04:47:30;;;;;;;31.50;27.70;;;21.00;99.90;;;;;;4936352;29;20631;-83
2023/09/13 04:49:56;;;;;;;29.40;25.87;;;20.90;99.90;;;;;;4919841;29;21004;-83
2023/09/13 04:53:02;;;;;;;31.73;27.23;;;20.90;99.90;;;;;;4940051;29;20227;-81
2023/09/13 04:55:28;;;;;;;28.60;23.43;;;20.90;99.90;;;;;;4944618;29;20598;-83
2023/09/13 04:57:54;;;;;;;32.03;26.80;;;20.90;99.90;;;;;;4928367;29;20687;-84
2023/09/13 05:00:20;;;;;;;35.67;26.07;;;20.80;99.90;;;;;;4937131;29;20683;-83
2023/09/13 05:02:46;;;;;;;32.17;26.47;;;20.80;99.90;;;;;;4952225;28;20793;-82
2023/09/13 05:05:12;;;;;;;36.03;29.87;;;20.80;99.90;;;;;;4917184;29;20676;-83
2023/09/13 05:07:37;;;;;;;35.77;27.30;;;20.80;99.90;;;;;;4925945;29;20192;-81
2023/09/13 05:10:03;;;;;;;34.47;29.27;;;20.70;99.90;;;;;;4942679;29;20642;-81
2023/09/13 05:12:29;;;;;;;33.50;27.80;;;20.70;99.90;;;;;;4934636;29;20295;-82
2023/09/13 05:14:55;;;;;;;35.60;28.37;;;20.60;99.90;;;;;;4933756;29;20584;-82
2023/09/13 05:17:22;;;;;;;35.13;29.50;;;20.60;99.90;;;;;;4953345;29;20212;-80
2023/09/13 05:19:48;;;;;;;32.67;25.27;;;20.60;99.90;;;;;;4951950;29;20180;-80
2023/09/13 05:22:14;;;;;;;32.50;26.00;;;20.60;99.90;;;;;;4952680;28;20603;-80
2023/09/13 05:24:39;;;;;;;32.80;26.23;;;20.50;99.90;;;;;;4935980;29;20275;-80
2023/09/13 05:27:05;;;;;;;35.83;28.17;;;20.50;99.90;;;;;;4926277;29;20671;-79
2023/09/13 05:29:30;;;;;;;31.47;24.87;;;20.50;99.90;;;;;;4921772;29;20666;-79
2023/09/13 05:31:56;;;;;;;31.30;26.27;;;20.50;99.90;;;;;;4924536;29;20264;-80
2023/09/13 05:34:22;;;;;;;37.53;27.93;;;20.40;99.90;;;;;;4930306;29;20177;-79
2023/09/13 05:36:48;;;;;;;32.77;26.60;;;20.40;99.90;;;;;;4933998;29;20707;-80
2023/09/13 05:39:13;;;;;;;39.10;27.23;;;20.40;99.90;;;;;;4944355;29;20254;-80
2023/09/13 05:41:39;;;;;;;32.73;24.97;;;20.40;99.90;;;;;;4948517;29;20667;-80
2023/09/13 05:44:10;;;;;;;35.10;26.53;;;20.50;99.90;;;;;;4934435;29;20697;-80
2023/09/13 05:46:36;;;;;;;35.27;26.60;;;20.50;99.90;;;;;;4934191;28;20181;-80
2023/09/13 05:49:02;;;;;;;34.40;27.60;;;20.50;99.90;;;;;;4948750;28;20591;-80
2023/09/13 05:51:28;;;;;;;33.20;27.67;;;20.50;99.90;;;;;;4942935;28;20244;-80
2023/09/13 05:53:53;;;;;;;29.40;24.40;;;20.60;99.90;;;;;;4951318;29;20180;-80
2023/09/13 05:56:19;;;;;;;29.17;25.97;;;20.60;99.90;;;;;;4951827;29;20200;-80
2023/09/13 05:58:45;;;;;;;28.77;24.07;;;20.60;99.90;;;;;;4958356;29;20184;-79
2023/09/13 06:01:11;;;;;;;27.80;24.80;;;20.60;99.90;;;;;;4960702;29;20184;-79
2023/09/13 06:03:36;;;;;;;26.23;23.33;;;20.70;99.90;;;;;;4946682;29;20183;-80
2023/09/13 06:06:02;;;;;;;28.73;22.50;;;20.70;99.90;;;;;;4959278;29;20613;-79
2023/09/13 06:08:28;;;;;;;24.60;21.80;;;20.70;99.90;;;;;;4957488;29;20176;-79
2023/09/13 06:10:55;;;;;;;25.13;22.33;;;20.80;99.90;;;;;;4944428;29;20589;-79
2023/09/13 06:13:23;;;;;;;32.10;24.73;;;20.80;99.90;;;;;;4957341;28;20707;-79
2023/09/13 06:15:49;;;;;;;23.83;21.50;;;20.90;99.90;;;;;;4949620;29;20642;-79
2023/09/13 06:18:14;;;;;;;23.10;19.53;;;20.90;99.90;;;;;;4941334;29;20588;-79
2023/09/13 06:20:40;;;;;;;21.10;19.00;;;21.00;99.90;;;;;;4940769;28;20177;-80
2023/09/13 06:23:06;;;;;;;21.60;19.20;;;21.00;99.90;;;;;;4943880;28;20270;-80
2023/09/13 06:25:32;;;;;;;18.20;16.27;;;21.00;99.90;;;;;;4933252;29;20184;-80
2023/09/13 06:27:58;;;;;;;19.37;17.03;;;21.00;99.90;;;;;;4923926;29;20592;-80
2023/09/13 06:30:23;;;;;;;19.47;17.37;;;21.00;99.90;;;;;;4923704;29;20622;-80
2023/09/13 06:32:49;;;;;;;18.97;16.97;;;21.00;99.90;;;;;;4916078;29;20204;-80
2023/09/13 06:35:15;;;;;;;19.97;16.93;;;21.00;99.90;;;;;;4933093;29;21141;-80
2023/09/13 06:37:42;;;;;;;17.83;15.60;;;21.10;99.90;;;;;;4946816;29;20291;-80
2023/09/13 06:40:08;;;;;;;20.43;18.33;;;21.10;99.90;;;;;;4949575;29;20200;-80
2023/09/13 06:42:34;;;;;;;19.23;17.27;;;21.10;99.90;;;;;;4935137;29;20862;-80
2023/09/13 06:45:00;;;;;;;18.83;16.83;;;21.10;99.90;;;;;;4952588;29;20583;-80
2023/09/13 06:47:28;;;;;;;19.47;17.40;;;21.10;99.90;;;;;;4933407;29;20188;-80
2023/09/13 06:49:55;;;;;;;18.47;16.60;;;21.10;99.90;;;;;;4940924;29;20589;-80
2023/09/13 06:52:20;;;;;;;16.50;14.83;;;21.20;99.90;;;;;;4911255;29;20972;-80
2023/09/13 06:54:46;;;;;;;18.13;15.67;;;21.20;99.90;;;;;;4919828;29;20585;-80
2023/09/13 06:57:12;;;;;;;17.00;15.30;;;21.20;99.90;;;;;;4935737;29;20219;-80
2023/09/13 06:59:38;;;;;;;18.57;15.47;;;21.20;99.90;;;;;;4942701;29;20173;-79
2023/09/13 07:02:05;;;;;;;17.40;15.20;;;21.30;99.90;;;;;;4919762;29;20250;-80
2023/09/13 07:04:30;;;;;;;17.40;15.70;;;21.30;99.90;;;;;;4955798;29;20672;-80
2023/09/13 07:06:56;;;;;;;17.00;15.07;;;21.30;99.90;;;;;;4939846;29;20603;-79
2023/09/13 07:09:22;;;;;;;19.03;17.10;;;21.30;99.90;;;;;;4936776;29;20264;-80
2023/09/13 07:11:47;;;;;;;18.10;16.40;;;21.30;99.90;;;;;;4936378;29;20208;-80
2023/09/13 07:14:13;;;;;;;19.43;17.53;;;21.30;99.90;;;;;;4912595;29;20267;-80
2023/09/13 07:16:39;;;;;;;19.23;17.23;;;21.30;99.90;;;;;;4935317;29;20205;-79
2023/09/13 07:19:04;;;;;;;18.10;16.40;;;21.30;99.90;;;;;;4950441;28;20181;-80
2023/09/13 07:21:30;;;;;;;19.03;17.03;;;21.30;99.90;;;;;;4949288;28;20243;-80
2023/09/13 07:23:56;;;;;;;17.37;15.30;;;21.30;99.90;;;;;;4952881;28;20196;-79
2023/09/13 07:26:21;;;;;;;20.53;15.17;;;21.30;99.90;;;;;;4932268;29;20618;-80
2023/09/13 07:28:47;;;;;;;19.67;15.10;;;21.30;99.90;;;;;;4939449;28;20181;-81
2023/09/13 07:31:14;;;;;;;18.57;16.67;;;21.30;99.90;;;;;;4943931;29;20547;-81
2023/09/13 07:33:40;;;;;;;16.33;14.60;;;21.30;99.90;;;;;;4942088;29;20188;-81
2023/09/13 07:36:05;;;;;;;24.63;16.50;;;21.40;99.90;;;;;;4944433;29;21359;-81
2023/09/13 07:38:32;;;;;;;16.23;14.67;;;21.40;99.90;;;;;;4923406;29;20280;-81
2023/09/13 07:40:58;;;;;;;17.50;15.63;;;21.50;99.90;;;;;;4952445;28;20678;-80
2023/09/13 07:43:24;;;;;;;16.87;15.17;;;21.50;99.90;;;;;;4931237;29;20616;-81
2023/09/13 07:45:50;;;;;;;14.90;13.27;;;21.50;99.90;;;;;;4942089;29;21159;-82
2023/09/13 07:48:16;;;;;;;17.77;14.50;;;21.60;99.90;;;;;;4937679;29;20189;-82
2023/09/13 07:50:42;;;;;;;20.37;15.30;;;21.60;99.90;;;;;;4923054;29;20610;-81
2023/09/13 07:53:10;;;;;;;17.37;14.93;;;21.70;99.90;;;;;;4951105;28;20259;-81
2023/09/13 07:55:36;;;;;;;14.30;12.80;;;21.70;99.90;;;;;;4955479;29;20172;-81
2023/09/13 07:58:03;;;;;;;17.73;15.50;;;21.70;99.90;;;;;;4947390;29;21023;-81
2023/09/13 08:00:29;;;;;;;16.67;14.87;;;21.80;99.90;;;;;;4955008;28;20997;-81
2023/09/13 08:02:55;;;;;;;15.57;13.83;;;21.90;99.90;;;;;;4957792;28;20616;-82
2023/09/13 08:05:21;;;;;;;17.67;14.90;;;21.90;99.90;;;;;;4934885;29;20241;-81
2023/09/13 08:07:48;;;;;;;15.67;14.03;;;22.10;99.90;;;;;;4948860;29;20687;-81
2023/09/13 08:10:14;;;;;;;14.80;13.40;;;22.20;99.90;;;;;;4954781;29;21235;-80
2023/09/13 08:12:40;;;;;;;15.37;13.73;;;22.50;99.90;;;;;;4947278;29;20643;-81
2023/09/13 08:15:07;;;;;;;15.07;13.40;;;22.90;99.90;;;;;;4942036;29;20584;-81
2023/09/13 08:17:33;;;;;;;13.53;12.10;;;23.50;99.90;;;;;;4959254;29;20721;-81
2023/09/13 08:20:01;;;;;;;12.30;10.80;;;23.90;99.90;;;;;;4945955;28;20671;-81
2023/09/13 08:22:27;;;;;;;11.70;10.50;;;24.30;99.90;;;;;;4962504;28;21052;-81
2023/09/13 08:24:53;;;;;;;12.67;10.70;;;24.50;99.90;;;;;;4965263;29;20603;-81
2023/09/13 08:27:19;;;;;;;13.03;10.47;;;24.60;99.90;;;;;;4950562;29;20589;-82
2023/09/13 08:29:44;;;;;;;12.57;9.37;;;24.50;99.90;;;;;;4950444;29;20587;-82
2023/09/13 08:32:10;;;;;;;13.27;11.97;;;24.50;99.90;;;;;;4930195;29;20204;-82
2023/09/13 08:34:36;;;;;;;12.97;10.47;;;24.50;99.90;;;;;;4967845;29;20173;-80
2023/09/13 08:37:10;;;;;;;16.97;11.00;;;24.40;99.90;;;;;;4935363;29;20188;-80
2023/09/13 08:39:36;;;;;;;12.67;10.63;;;24.30;99.90;;;;;;4940522;28;20181;-80
2023/09/13 08:42:02;;;;;;;14.20;9.07;;;24.30;99.90;;;;;;4958145;29;20703;-79
2023/09/13 08:44:29;;;;;;;9.87;8.97;;;24.30;99.90;;;;;;4955984;29;20592;-79
2023/09/13 08:46:58;;;;;;;11.20;9.53;;;24.30;99.90;;;;;;4948951;28;20600;-81
2023/09/13 08:49:25;;;;;;;12.90;9.73;;;24.20;99.90;;;;;;4941886;29;20604;-81
2023/09/13 08:51:52;;;;;;;13.93;10.10;;;24.20;99.90;;;;;;5167407;23;20669;-78
2023/09/13 08:54:18;;;;;;;11.40;9.53;;;24.10;99.90;;;;;;4932340;29;20940;-79
2023/09/13 08:56:45;;;;;;;16.23;10.27;;;24.10;99.90;;;;;;4916567;29;20641;-79
2023/09/13 08:59:15;;;;;;;34.33;16.27;;;24.00;99.90;;;;;;4932484;29;20593;-79
2023/09/13 09:01:53;;;;;;;22.80;14.97;;;24.00;99.90;;;;;;4894495;29;20629;-77
2023/09/13 09:04:20;;;;;;;17.23;12.63;;;24.00;99.90;;;;;;4909255;29;20612;-77
2023/09/13 09:06:47;;;;;;;11.30;9.50;;;24.00;99.90;;;;;;4943003;29;20960;-77
2023/09/13 09:09:18;;;;;;;11.23;9.30;;;24.00;99.90;;;;;;4926211;29;20594;-76
2023/09/13 09:11:49;;;;;;;12.73;10.50;;;24.00;99.90;;;;;;4901277;29;20620;-76
2023/09/13 09:14:15;;;;;;;11.40;8.57;;;24.00;99.90;;;;;;4924038;29;20600;-76
2023/09/13 09:16:43;;;;;;;11.10;10.00;;;24.00;99.90;;;;;;4925875;29;20670;-77
2023/09/13 09:19:09;;;;;;;10.47;9.33;;;24.00;99.90;;;;;;4917739;29;20625;-76
2023/09/13 09:21:37;;;;;;;11.40;9.60;;;24.00;99.90;;;;;;4932287;29;20719;-77
2023/09/13 09:24:03;;;;;;;11.30;8.93;;;24.00;99.90;;;;;;4933905;29;20590;-76
2023/09/13 09:26:29;;;;;;;9.63;7.90;;;24.00;99.90;;;;;;4940089;29;20748;-76
2023/09/13 09:29:08;;;;;;;11.10;9.60;;;24.00;99.90;;;;;;4908551;29;20601;-77
2023/09/13 09:31:34;;;;;;;11.20;10.03;;;24.00;99.90;;;;;;4921153;29;20225;-77
2023/09/13 09:34:03;;;;;;;9.67;8.63;;;24.10;99.90;;;;;;4921373;29;21169;-77
2023/09/13 09:36:34;;;;;;;10.47;9.17;;;24.20;99.90;;;;;;4896862;29;20460;-77
2023/09/13 09:39:04;;;;;;;9.20;8.20;;;24.30;99.90;;;;;;4905512;29;20586;-77
2023/09/13 09:41:37;;;;;;;10.10;8.17;;;24.40;99.90;;;;;;4920578;29;20594;-78
2023/09/13 09:44:03;;;;;;;9.03;8.13;;;24.50;99.90;;;;;;4929066;29;20585;-76
2023/09/13 09:46:33;;;;;;;9.83;7.97;;;24.60;99.90;;;;;;4913700;29;20597;-77
2023/09/13 09:49:00;;;;;;;9.50;7.30;;;24.70;99.90;;;;;;4866539;29;20598;-77
2023/09/13 09:51:28;;;;;;;11.20;7.17;;;24.80;99.90;;;;;;4906901;29;20613;-77
2023/09/13 09:53:55;;;;;;;8.50;6.60;;;24.90;99.90;;;;;;4942622;29;20600;-77
2023/09/13 09:56:21;;;;;;;6.77;6.03;;;25.00;99.90;;;;;;4926232;29;20675;-77
2023/09/13 09:58:48;;;;;;;8.17;6.80;;;25.10;99.90;;;;;;4932705;29;20585;-77
2023/09/13 10:01:16;;;;;;;9.53;7.33;;;25.30;99.90;;;;;;4932976;29;20596;-77
2023/09/13 10:03:43;;;;;;;8.93;6.80;;;25.60;99.90;;;;;;4941151;29;20646;-78
2023/09/13 10:06:14;;;;;;;11.37;7.70;;;25.80;99.90;;;;;;4944716;29;20597;-77
2023/09/13 10:08:45;;;;;;;8.50;7.67;;;25.90;99.90;;;;;;4940734;29;20589;-78
2023/09/13 10:11:13;;;;;;;8.33;7.47;;;26.00;99.90;;;;;;4932409;29;20737;-78
2023/09/13 10:13:40;;;;;;;6.67;5.83;;;26.00;99.90;;;;;;4924243;29;20588;-78
2023/09/13 10:16:07;;;;;;;9.57;6.50;;;26.10;99.90;;;;;;4926006;29;21045;-78
2023/09/13 10:18:50;;;;;;;6.87;5.27;;;26.10;99.90;;;;;;4924806;29;20596;-78
2023/09/13 10:21:27;;;;;;;5.00;4.40;;;26.20;99.90;;;;;;4924963;29;20589;-77
2023/09/13 10:23:59;;;;;;;4.53;4.10;;;26.30;99.90;;;;;;4942354;29;21251;-77
2023/09/13 10:26:26;;;;;;;6.20;4.40;;;26.60;99.90;;;;;;4910373;29;20609;-77
2023/09/13 10:28:55;;;;;;;4.83;4.33;;;26.90;99.90;;;;;;4925707;29;21254;-77
2023/09/13 10:31:27;;;;;;;5.40;4.40;;;27.00;99.90;;;;;;4902036;29;20588;-78
2023/09/13 10:33:53;;;;;;;5.63;4.80;;;27.20;99.90;;;;;;4931332;29;20681;-76
2023/09/13 10:36:36;;;;;;;6.07;5.07;;;27.20;99.90;;;;;;4932460;29;20643;-80
2023/09/13 10:39:27;;;;;;;4.63;3.67;;;27.20;99.90;;;;;;4943404;29;20585;-79
2023/09/13 10:42:02;;;;;;;5.20;4.70;;;27.20;99.90;;;;;;4939607;29;20640;-78
2023/09/13 10:44:28;;;;;;;6.60;4.53;;;27.20;99.90;;;;;;4936205;29;20951;-79
2023/09/13 10:46:58;;;;;;;6.70;4.63;;;27.30;99.90;;;;;;4919981;29;20592;-79
2023/09/13 10:49:24;;;;;;;6.27;4.23;;;27.40;99.90;;;;;;4936014;29;20199;-79
2023/09/13 10:51:50;;;;;;;9.40;5.30;;;27.60;99.90;;;;;;4935889;29;20763;-80
2023/09/13 10:54:18;;;;;;;6.93;4.57;;;27.80;99.90;;;;;;4945996;29;20615;-77
2023/09/13 10:56:45;;;;;;;5.77;4.77;;;27.90;99.90;;;;;;4943179;29;20640;-77
2023/09/13 10:59:17;;;;;;;5.30;3.93;;;28.10;99.90;;;;;;4913267;29;20649;-77
2023/09/13 11:01:49;;;;;;;6.20;3.97;;;28.10;99.90;;;;;;4901327;29;20642;-77
2023/09/13 11:04:35;;;;;;;4.53;4.00;;;28.20;99.90;;;;;;4935888;29;20935;-78
2023/09/13 11:07:04;;;;;;;5.13;4.27;;;28.30;99.90;;;;;;4935794;29;20600;-78
2023/09/13 11:09:31;;;;;;;5.13;4.20;;;28.40;99.90;;;;;;4936109;29;20599;-78
2023/09/13 11:11:58;;;;;;;6.20;3.80;;;28.60;99.90;;;;;;4914122;29;20630;-77
2023/09/13 11:14:28;;;;;;;5.00;3.10;;;28.80;99.90;;;;;;4935127;29;21089;-78
2023/09/13 11:16:54;;;;;;;5.73;3.77;;;29.10;99.90;;;;;;4936453;29;20636;-78
2023/09/13 11:19:27;;;;;;;4.87;3.60;;;29.40;99.90;;;;;;4903422;29;20693;-77
2023/09/13 11:22:00;;;;;;;4.47;3.30;;;29.50;99.90;;;;;;4911338;29;20968;-77
2023/09/13 11:24:41;;;;;;;6.23;4.30;;;29.60;99.90;;;;;;4909710;29;20586;-77
2023/09/13 11:27:12;;;;;;;4.93;3.30;;;29.60;99.90;;;;;;4934928;29;20592;-77
2023/09/13 11:29:42;;;;;;;4.00;3.57;;;29.60;99.90;;;;;;4926921;29;20620;-77
2023/09/13 11:32:14;;;;;;;5.17;4.57;;;29.60;99.90;;;;;;4934907;29;20635;-77
2023/09/13 11:34:40;;;;;;;5.87;4.43;;;29.70;99.90;;;;;;4930042;29;20586;-77
2023/09/13 11:37:07;;;;;;;7.80;5.80;;;29.80;99.90;;;;;;4926969;29;20635;-77
2023/09/13 11:39:33;;;;;;;6.90;5.43;;;29.90;99.90;;;;;;4935806;29;20181;-77
2023/09/13 11:41:59;;;;;;;5.63;5.00;;;29.90;99.90;;;;;;4928431;29;20621;-77
2023/09/13 11:44:26;;;;;;;6.70;3.83;;;29.90;99.90;;;;;;4917073;29;20689;-77
2023/09/13 11:46:54;;;;;;;4.73;4.30;;;29.90;99.90;;;;;;4902733;29;20671;-77
2023/09/13 11:49:21;;;;;;;6.20;3.90;;;29.90;99.90;;;;;;4889710;29;20581;-77
2023/09/13 11:51:57;;;;;;;4.00;3.30;;;29.80;99.90;;;;;;4914455;29;20641;-77
2023/09/13 11:54:24;;;;;;;3.47;2.67;;;29.70;99.90;;;;;;4901839;29;20597;-77
2023/09/13 11:56:54;;;;;;;3.33;2.50;;;29.50;99.90;;;;;;4915183;29;21251;-77
2023/09/13 11:59:24;;;;;;;6.70;3.70;;;29.40;99.90;;;;;;4916072;29;20603;-77
2023/09/13 12:01:51;;;;;;;3.83;3.50;;;29.40;99.90;;;;;;4914926;29;21200;-78
2023/09/13 12:04:19;;;;;;;4.40;4.00;;;29.30;99.90;;;;;;4916151;29;20590;-77
2023/09/13 12:06:50;;;;;;;5.70;3.80;;;29.10;99.90;;;;;;4915156;29;20629;-77
2023/09/13 12:09:17;;;;;;;4.43;4.03;;;28.90;99.90;;;;;;4916227;29;20608;-77
2023/09/13 12:11:50;;;;;;;5.20;3.20;;;28.80;99.90;;;;;;4916584;29;20632;-77
2023/09/13 12:14:18;;;;;;;2.37;1.73;;;28.60;99.90;;;;;;4930754;29;20600;-77
2023/09/13 12:16:47;;;;;;;2.60;1.37;;;28.40;99.90;;;;;;4911928;29;20643;-79
2023/09/13 12:19:14;;;;;;;3.40;1.40;;;28.20;99.90;;;;;;4919993;29;20585;-80
2023/09/13 12:21:44;;;;;;;2.10;1.13;;;27.80;99.90;;;;;;4918748;29;20616;-77
2023/09/13 12:24:12;;;;;;;2.57;0.97;;;27.40;99.90;;;;;;4912482;29;20692;-77
2023/09/13 12:26:39;;;;;;;1.67;0.80;;;27.10;99.90;;;;;;4930620;29;20586;-77
2023/09/13 12:29:05;;;;;;;3.60;1.17;;;26.60;99.90;;;;;;4927231;29;20692;-78
2023/09/13 12:31:31;;;;;;;2.37;1.37;;;26.20;99.90;;;;;;4907082;29;20675;-78
2023/09/13 12:34:01;;;;;;;2.33;1.00;;;25.70;99.90;;;;;;4908569;29;20593;-78
2023/09/13 12:36:27;;;;;;;2.30;0.90;;;25.20;99.90;;;;;;4926874;29;20677;-77